Huvudsida
METAR-TAF:

METAR-TAF

Flygplatser :

Jask, Iran

latitud: 26-38N, longitud: 057-46E, höjd: 3 m

Aktuellt väderrapport

Denna rapport gjordes för 1 timme och 26 minuter sedan, klockan 18:00 UTC
Vind 4 kt från nordost
Temperatur 24°C
Fuktighet 36%
Tryck 1014 hPa
Sikt: 8000 m

METAR: OIZJ 111800Z 04004KT 8000 NSC 24/08 Q1014

Tid: 22:56 (19:26 UTC)


TAF: saknas

Aktuella väderrapporter och prognoser från 4000 flygplatser (METAR- och TAF-rapporter).

De tillgängliga stationerna syns som gula och röda prickar på kartan.

För musen över prickarna för att se namnen på stationerna.

Klicka sedan för att få väderrapporter och prognoser.

För att ändra kartan: Klicka på de gröna knapparna med ett svart kors på för att zooma in; den gröna knappen med ett streck på för att zooma ut; eller på de gröna pilarna för angränsande kartor.


METAR-TAF: